createdAt,value
2022-12-27T00:00:57.119Z,2.10
2022-12-27T00:03:24.388Z,2.15
2022-12-27T00:05:52.444Z,2.17
2022-12-27T00:08:19.740Z,2.00
2022-12-27T00:10:46.987Z,2.40
2022-12-27T00:13:14.382Z,1.92
2022-12-27T00:15:41.996Z,1.77
2022-12-27T00:18:09.429Z,2.30
2022-12-27T00:20:36.984Z,2.10
2022-12-27T00:23:04.177Z,1.75
2022-12-27T00:25:31.554Z,2.15
2022-12-27T00:27:58.799Z,2.70
2022-12-27T00:30:26.257Z,1.88
2022-12-27T00:32:53.746Z,1.80
2022-12-27T00:35:21.146Z,2.17
2022-12-27T00:37:48.491Z,1.65
2022-12-27T00:40:15.961Z,2.10
2022-12-27T00:42:43.190Z,1.90
2022-12-27T00:45:11.046Z,2.30
2022-12-27T00:47:38.420Z,2.25
2022-12-27T00:50:06.124Z,1.92
2022-12-27T00:52:33.648Z,1.90
2022-12-27T00:55:00.955Z,1.60
2022-12-27T00:57:28.181Z,2.03
2022-12-27T00:59:55.447Z,1.50
2022-12-27T01:02:22.805Z,1.92
2022-12-27T01:04:50.198Z,2.78
2022-12-27T01:07:18.305Z,2.10
2022-12-27T01:09:45.645Z,2.28
2022-12-27T01:12:13.056Z,2.60
2022-12-27T01:14:40.775Z,1.98
2022-12-27T01:17:08.362Z,2.20
2022-12-27T01:19:36.858Z,1.80
2022-12-27T01:22:05.167Z,2.75
2022-12-27T01:24:33.207Z,2.13
2022-12-27T01:27:00.718Z,1.85
2022-12-27T01:29:27.997Z,2.00
2022-12-27T01:31:55.511Z,2.10
2022-12-27T01:34:23.223Z,1.65
2022-12-27T01:36:50.646Z,2.63
2022-12-27T01:39:17.945Z,2.22
2022-12-27T01:42:03.633Z,2.55
2022-12-27T01:44:40.496Z,1.80
2022-12-27T01:47:40.236Z,2.30
2022-12-27T01:50:07.865Z,1.98
2022-12-27T01:52:47.764Z,1.90
2022-12-27T01:55:40.335Z,2.17
2022-12-27T01:58:13.636Z,2.13
2022-12-27T02:00:44.048Z,2.13
2022-12-27T02:03:13.897Z,1.83
2022-12-27T02:05:42.643Z,2.07
2022-12-27T02:08:41.361Z,2.35
2022-12-27T02:11:10.193Z,2.40
2022-12-27T02:13:42.423Z,3.45
2022-12-27T02:16:17.175Z,2.28
2022-12-27T02:18:46.135Z,2.30
2022-12-27T02:21:25.467Z,2.90
2022-12-27T02:24:51.286Z,2.08
2022-12-27T02:27:24.880Z,1.92
2022-12-27T02:30:07.382Z,2.30
2022-12-27T02:33:00.562Z,1.92
2022-12-27T02:36:09.299Z,2.20
2022-12-27T02:38:42.650Z,2.60
2022-12-27T02:41:30.961Z,2.17
2022-12-27T02:44:16.767Z,2.58
2022-12-27T02:47:03.706Z,2.42
2022-12-27T02:49:54.793Z,1.88
2022-12-27T02:52:46.836Z,2.10
2022-12-27T02:55:20.396Z,2.35
2022-12-27T02:58:00.531Z,2.03
2022-12-27T03:00:54.537Z,1.58
2022-12-27T03:03:29.058Z,1.70
2022-12-27T03:06:44.742Z,1.75
2022-12-27T03:09:49.108Z,2.03
2022-12-27T03:12:52.863Z,1.83
2022-12-27T03:15:45.138Z,2.35
2022-12-27T03:18:18.993Z,2.22
2022-12-27T03:21:08.075Z,1.73
2022-12-27T03:23:58.703Z,2.38
2022-12-27T03:26:28.645Z,1.92
2022-12-27T03:29:16.557Z,1.70
2022-12-27T03:32:06.528Z,1.98
2022-12-27T03:34:40.244Z,2.50
2022-12-27T03:37:37.912Z,1.98
2022-12-27T03:40:05.136Z,1.70
2022-12-27T03:42:56.941Z,2.20
2022-12-27T03:45:44.859Z,1.90
2022-12-27T03:48:20.217Z,2.42
2022-12-27T03:50:54.701Z,2.00
2022-12-27T03:53:29.887Z,2.13
2022-12-27T03:55:57.734Z,1.67
2022-12-27T03:58:25.062Z,2.13
2022-12-27T04:00:53.621Z,2.20
2022-12-27T04:03:21.036Z,2.75
2022-12-27T04:05:48.452Z,2.47
2022-12-27T04:08:34.310Z,2.35
2022-12-27T04:11:20.368Z,1.80
2022-12-27T04:14:06.376Z,2.03
2022-12-27T04:16:52.160Z,2.80
2022-12-27T04:19:38.050Z,2.78
2022-12-27T04:22:24.055Z,2.72
2022-12-27T04:25:12.162Z,2.92
2022-12-27T04:27:58.109Z,2.55
2022-12-27T04:30:43.984Z,2.40
2022-12-27T04:33:29.923Z,1.88
2022-12-27T04:36:01.372Z,2.72
2022-12-27T04:38:31.726Z,2.72
2022-12-27T04:41:17.727Z,2.38
2022-12-27T04:44:03.618Z,2.08
2022-12-27T04:46:49.539Z,2.33
2022-12-27T04:49:43.145Z,2.13
2022-12-27T04:52:33.211Z,3.03
2022-12-27T04:55:11.347Z,2.08
2022-12-27T04:57:38.675Z,3.15
2022-12-27T05:00:25.386Z,2.50
2022-12-27T05:02:53.144Z,3.13
2022-12-27T05:05:21.580Z,2.97
2022-12-27T05:08:09.596Z,2.83
2022-12-27T05:10:55.679Z,2.28
2022-12-27T05:13:41.626Z,3.50
2022-12-27T05:16:08.960Z,2.35
2022-12-27T05:18:36.403Z,1.83
2022-12-27T05:21:05.778Z,2.28
2022-12-27T05:23:56.780Z,2.28
2022-12-27T05:26:28.173Z,1.65
2022-12-27T05:28:57.600Z,2.35
2022-12-27T05:31:27.884Z,2.75
2022-12-27T05:33:57.229Z,2.35
2022-12-27T05:36:25.358Z,2.22
2022-12-27T05:38:52.843Z,2.20
2022-12-27T05:41:20.454Z,2.53
2022-12-27T05:43:48.018Z,1.60
2022-12-27T05:46:18.743Z,2.15
2022-12-27T05:51:21.403Z,2.20
2022-12-27T05:53:49.498Z,2.53
2022-12-27T05:56:19.670Z,2.55
2022-12-27T05:58:47.703Z,3.05
2022-12-27T06:01:17.101Z,3.08
2022-12-27T06:03:45.480Z,2.05
2022-12-27T06:06:13.418Z,2.22
2022-12-27T06:08:41.258Z,2.90
2022-12-27T06:11:12.754Z,2.33
2022-12-27T06:13:42.632Z,2.95
2022-12-27T06:16:12.570Z,2.63
2022-12-27T06:18:41.518Z,3.20
2022-12-27T06:21:12.461Z,2.85
2022-12-27T06:23:41.635Z,2.83
2022-12-27T06:26:12.828Z,2.45
2022-12-27T06:28:40.300Z,2.88
2022-12-27T06:31:10.775Z,2.47
2022-12-27T06:33:38.456Z,2.80
2022-12-27T06:36:10.381Z,3.08
2022-12-27T06:38:38.242Z,2.83
2022-12-27T06:41:08.691Z,2.88
2022-12-27T06:43:36.119Z,3.40
2022-12-27T06:46:06.292Z,3.10
2022-12-27T06:48:34.197Z,3.55
2022-12-27T06:51:08.190Z,2.50
2022-12-27T06:53:38.946Z,4.25
2022-12-27T06:58:34.907Z,2.63
2022-12-27T07:01:17.195Z,2.75
2022-12-27T07:03:48.818Z,3.78
2022-12-27T07:06:16.177Z,2.95
2022-12-27T07:08:43.620Z,3.00
2022-12-27T07:11:12.550Z,2.33
2022-12-27T07:13:43.260Z,2.65
2022-12-27T07:18:39.519Z,3.00
2022-12-27T07:21:12.015Z,2.92
2022-12-27T07:23:39.574Z,2.95
2022-12-27T07:26:12.464Z,3.08
2022-12-27T07:28:40.554Z,3.10
2022-12-27T07:31:12.320Z,2.75
2022-12-27T07:33:40.218Z,3.13
2022-12-27T07:36:11.522Z,2.85
2022-12-27T07:38:39.040Z,3.15
2022-12-27T07:41:06.421Z,2.47
2022-12-27T07:43:35.342Z,3.00
2022-12-27T07:46:16.141Z,2.90
2022-12-27T07:51:11.522Z,2.90
2022-12-27T07:53:39.152Z,2.50
2022-12-27T07:56:21.740Z,2.47
2022-12-27T07:58:54.732Z,2.97
2022-12-27T08:01:23.563Z,2.88
2022-12-27T08:03:51.502Z,8.70
2022-12-27T08:06:25.185Z,4.28
2022-12-27T08:08:54.107Z,2.30
2022-12-27T08:11:21.664Z,3.00
2022-12-27T08:13:48.893Z,2.35
2022-12-27T08:16:22.434Z,2.67
2022-12-27T08:18:49.867Z,2.92
2022-12-27T08:21:17.303Z,2.60
2022-12-27T08:23:44.882Z,2.90
2022-12-27T08:26:12.233Z,2.40
2022-12-27T08:28:39.733Z,3.97
2022-12-27T08:31:09.469Z,3.15
2022-12-27T08:33:37.551Z,2.30
2022-12-27T08:36:53.399Z,3.00
2022-12-27T08:38:55.924Z,2.17
2022-12-27T08:41:23.790Z,2.47
2022-12-27T08:43:51.177Z,2.95
2022-12-27T08:46:19.534Z,3.17
2022-12-27T08:48:48.983Z,2.65
2022-12-27T08:51:24.825Z,2.70
2022-12-27T08:53:57.622Z,3.58
2022-12-27T08:56:28.258Z,3.30
2022-12-27T08:58:55.562Z,3.20
2022-12-27T09:01:22.883Z,3.10
2022-12-27T09:03:50.381Z,2.97
2022-12-27T09:06:23.815Z,2.50
2022-12-27T09:08:52.306Z,2.58
2022-12-27T09:11:31.491Z,3.17
2022-12-27T09:14:05.052Z,3.92
2022-12-27T09:16:36.643Z,2.92
2022-12-27T09:19:04.380Z,2.50
2022-12-27T09:21:34.239Z,2.60
2022-12-27T09:24:01.956Z,2.70
2022-12-27T09:26:31.983Z,2.80
2022-12-27T09:29:00.746Z,2.38
2022-12-27T09:31:28.918Z,3.15
2022-12-27T09:33:57.077Z,3.25
2022-12-27T09:36:27.769Z,2.50
2022-12-27T09:42:45.974Z,2.88
2022-12-27T09:45:03.948Z,2.63
2022-12-27T09:47:43.471Z,3.08
2022-12-27T09:50:15.523Z,2.88
2022-12-27T09:53:01.880Z,2.60
2022-12-27T09:55:32.056Z,3.33
2022-12-27T09:58:13.597Z,3.38
2022-12-27T10:00:46.012Z,3.00
2022-12-27T10:03:14.946Z,2.60
2022-12-27T10:05:46.074Z,3.15
2022-12-27T10:08:33.471Z,2.65
2022-12-27T10:11:39.008Z,2.85
2022-12-27T10:14:23.971Z,2.50
2022-12-27T10:17:31.527Z,3.00
2022-12-27T10:20:16.480Z,2.30
2022-12-27T10:22:52.720Z,2.83
2022-12-27T10:25:25.789Z,2.20
2022-12-27T10:28:02.161Z,2.15
2022-12-27T10:30:31.157Z,2.97
2022-12-27T10:32:58.482Z,3.20
2022-12-27T10:35:26.586Z,3.05
2022-12-27T10:37:54.679Z,4.15
2022-12-27T10:40:35.618Z,3.20
2022-12-27T10:43:25.042Z,2.25
2022-12-27T10:45:53.451Z,2.20
2022-12-27T10:48:47.360Z,2.50
2022-12-27T10:51:17.598Z,2.30
2022-12-27T10:53:47.773Z,2.05
2022-12-27T10:56:21.304Z,2.35
2022-12-27T10:58:58.256Z,2.90
2022-12-27T11:01:29.873Z,2.78
2022-12-27T11:06:54.083Z,2.67
2022-12-27T11:09:33.487Z,2.95
2022-12-27T11:12:18.980Z,2.35
2022-12-27T11:15:20.490Z,3.22
2022-12-27T11:17:55.453Z,2.38
2022-12-27T11:20:41.739Z,2.53
2022-12-27T11:23:10.241Z,2.78
2022-12-27T11:25:53.149Z,2.50
2022-12-27T11:28:51.638Z,2.50
2022-12-27T11:31:48.773Z,2.00
2022-12-27T11:34:32.494Z,2.13
2022-12-27T11:37:07.750Z,1.92
2022-12-27T11:39:46.272Z,2.35
2022-12-27T11:42:29.578Z,3.22
2022-12-27T11:45:24.338Z,2.53
2022-12-27T11:48:01.083Z,2.20
2022-12-27T11:50:28.321Z,1.98
2022-12-27T11:53:04.728Z,2.25
2022-12-27T11:55:50.607Z,2.63
2022-12-27T11:58:46.151Z,1.73
2022-12-27T12:01:33.306Z,1.95
2022-12-27T12:04:37.969Z,2.05
2022-12-27T12:07:24.540Z,2.00
2022-12-27T12:10:00.963Z,2.22
2022-12-27T12:12:57.085Z,2.10
2022-12-27T12:15:58.114Z,2.75
2022-12-27T12:21:18.833Z,2.22
2022-12-27T12:24:31.162Z,2.55
2022-12-27T12:27:36.011Z,2.33
2022-12-27T12:30:12.865Z,2.30
2022-12-27T12:32:59.335Z,2.13
2022-12-27T12:35:44.014Z,1.80
2022-12-27T12:38:23.534Z,2.20
2022-12-27T12:41:02.749Z,1.88
2022-12-27T12:44:00.703Z,2.30
2022-12-27T12:47:02.661Z,2.38
2022-12-27T12:49:52.517Z,2.33
2022-12-27T12:52:25.920Z,2.13
2022-12-27T12:55:05.634Z,2.55
2022-12-27T12:57:36.252Z,2.25
2022-12-27T13:00:25.257Z,2.00
2022-12-27T13:03:28.048Z,1.88
2022-12-27T13:06:14.253Z,2.80
2022-12-27T13:09:10.260Z,2.00
2022-12-27T13:12:03.437Z,2.28
2022-12-27T13:14:51.825Z,2.30
2022-12-27T13:17:28.319Z,2.00
2022-12-27T13:20:06.789Z,2.70
2022-12-27T13:22:58.864Z,2.53
2022-12-27T13:25:50.129Z,2.03
2022-12-27T13:28:38.366Z,2.80
2022-12-27T13:31:19.369Z,2.10
2022-12-27T13:34:17.471Z,2.67
2022-12-27T13:37:09.189Z,2.53
2022-12-27T13:40:09.076Z,2.30
2022-12-27T13:42:44.325Z,2.17
2022-12-27T13:45:39.789Z,2.47
2022-12-27T13:48:07.155Z,2.33
2022-12-27T13:50:40.650Z,2.67
2022-12-27T13:53:17.688Z,2.72
2022-12-27T13:56:52.922Z,3.08
2022-12-27T13:59:37.821Z,2.58
2022-12-27T14:02:37.853Z,2.70
2022-12-27T14:05:14.307Z,2.42
2022-12-27T14:07:50.632Z,2.70
2022-12-27T14:10:46.515Z,2.40
2022-12-27T14:13:19.196Z,2.55
2022-12-27T14:16:05.120Z,2.83
2022-12-27T14:18:45.545Z,2.80
2022-12-27T14:21:21.820Z,2.50
2022-12-27T14:24:27.906Z,2.72
2022-12-27T14:27:16.642Z,4.35
2022-12-27T14:29:50.208Z,2.47
2022-12-27T14:32:20.526Z,2.97
2022-12-27T14:35:00.715Z,3.03
2022-12-27T14:37:49.874Z,3.60
2022-12-27T14:40:17.522Z,2.97
2022-12-27T14:43:28.482Z,3.00
2022-12-27T14:46:25.389Z,4.13
2022-12-27T14:49:10.918Z,3.78
2022-12-27T14:52:13.706Z,3.50
2022-12-27T14:55:18.546Z,3.78
2022-12-27T14:58:18.064Z,3.10
2022-12-27T15:01:23.129Z,4.25
2022-12-27T15:04:07.772Z,3.30
2022-12-27T15:07:12.128Z,4.10
2022-12-27T15:09:52.436Z,3.78
2022-12-27T15:12:28.815Z,3.85
2022-12-27T15:15:21.444Z,4.00
2022-12-27T15:18:38.726Z,4.13
2022-12-27T15:21:18.694Z,4.55
2022-12-27T15:23:59.665Z,4.25
2022-12-27T15:26:55.153Z,5.03
2022-12-27T15:29:33.547Z,5.18
2022-12-27T15:32:52.873Z,5.45
2022-12-27T15:35:45.844Z,5.40
2022-12-27T15:38:41.376Z,5.20
2022-12-27T15:41:08.685Z,5.80
2022-12-27T15:44:05.629Z,5.50
2022-12-27T15:47:04.247Z,6.45
2022-12-27T15:49:50.728Z,5.80
2022-12-27T15:52:28.409Z,6.60
2022-12-27T15:55:33.450Z,6.70
2022-12-27T15:58:05.847Z,6.82
2022-12-27T16:00:34.848Z,8.20
2022-12-27T16:03:25.821Z,8.88
2022-12-27T16:05:55.927Z,8.20
2022-12-27T16:08:32.544Z,8.48
2022-12-27T16:11:02.927Z,9.57
2022-12-27T16:13:46.792Z,10.60
2022-12-27T16:16:37.310Z,10.43
2022-12-27T16:19:22.675Z,11.65
2022-12-27T16:21:50.414Z,12.60
2022-12-27T16:24:25.483Z,14.10
2022-12-27T16:27:04.899Z,14.13
2022-12-27T16:29:35.163Z,14.85
2022-12-27T16:32:23.256Z,14.30
2022-12-27T16:34:55.438Z,14.30
2022-12-27T16:37:44.907Z,14.10
2022-12-27T16:40:40.725Z,14.85
2022-12-27T16:43:08.285Z,15.13
2022-12-27T16:45:39.910Z,14.75
2022-12-27T16:48:27.453Z,14.95
2022-12-27T16:51:06.914Z,15.73
2022-12-27T16:53:42.459Z,14.38
2022-12-27T16:56:20.633Z,14.73
2022-12-27T16:58:48.710Z,15.88
2022-12-27T17:01:19.202Z,14.68
2022-12-27T17:03:48.536Z,15.45
2022-12-27T17:06:34.821Z,15.63
2022-12-27T17:09:08.500Z,15.38
2022-12-27T17:12:01.772Z,15.07
2022-12-27T17:14:35.097Z,15.45
2022-12-27T17:17:23.658Z,16.10
2022-12-27T17:19:56.891Z,15.30
2022-12-27T17:22:32.119Z,15.90
2022-12-27T17:25:03.148Z,16.67
2022-12-27T17:27:58.761Z,16.33
2022-12-27T17:30:44.158Z,15.73
2022-12-27T17:33:17.844Z,16.42
2022-12-27T17:36:11.759Z,17.10
2022-12-27T17:39:16.602Z,15.27
2022-12-27T17:42:11.907Z,16.42
2022-12-27T17:45:01.282Z,16.58
2022-12-27T17:47:55.300Z,17.05
2022-12-27T17:50:28.750Z,16.67
2022-12-27T17:53:42.515Z,17.02
2022-12-27T17:56:36.851Z,16.25
2022-12-27T17:59:07.234Z,17.55
2022-12-27T18:01:53.083Z,16.58
2022-12-27T18:04:32.035Z,17.45
2022-12-27T18:07:05.626Z,16.58
2022-12-27T18:09:38.181Z,16.70
2022-12-27T18:12:19.015Z,15.90
2022-12-27T18:17:34.940Z,15.38
2022-12-27T18:20:27.075Z,14.38
2022-12-27T18:22:54.387Z,14.77
2022-12-27T18:25:24.979Z,14.57
2022-12-27T18:28:17.500Z,14.57
2022-12-27T18:30:57.127Z,14.98
2022-12-27T18:33:48.936Z,13.50
2022-12-27T18:36:50.671Z,13.93
2022-12-27T18:39:33.835Z,13.07
2022-12-27T18:42:06.066Z,13.77
2022-12-27T18:44:45.091Z,14.35
2022-12-27T18:47:23.138Z,14.32
2022-12-27T18:50:01.699Z,13.60
2022-12-27T18:52:34.992Z,14.52
2022-12-27T18:55:13.750Z,13.95
2022-12-27T18:57:41.111Z,13.63
2022-12-27T19:00:24.673Z,13.30
2022-12-27T19:02:54.588Z,14.30
2022-12-27T19:05:24.777Z,14.80
2022-12-27T19:07:58.247Z,15.80
2022-12-27T19:10:28.297Z,14.07
2022-12-27T19:12:56.670Z,10.13
2022-12-27T19:15:28.465Z,14.20
2022-12-27T19:18:02.003Z,13.50
2022-12-27T19:20:40.255Z,14.15
2022-12-27T19:23:31.696Z,13.30
2022-12-27T19:26:16.209Z,13.18
2022-12-27T19:28:45.689Z,13.82
2022-12-27T19:31:22.184Z,14.30
2022-12-27T19:34:02.604Z,12.90
2022-12-27T19:36:42.340Z,14.75
2022-12-27T19:39:21.142Z,13.93
2022-12-27T19:41:49.918Z,13.52
2022-12-27T19:44:18.088Z,12.38
2022-12-27T19:46:46.329Z,13.35
2022-12-27T19:52:01.203Z,12.15
2022-12-27T19:54:29.464Z,12.73
2022-12-27T19:56:57.044Z,12.05
2022-12-27T19:59:25.235Z,11.95
2022-12-27T20:01:53.346Z,11.95
2022-12-27T20:04:20.828Z,10.98
2022-12-27T20:06:50.540Z,10.68
2022-12-27T20:09:19.932Z,10.32
2022-12-27T20:11:49.403Z,10.05
2022-12-27T20:14:18.023Z,10.23
2022-12-27T20:16:46.915Z,10.68
2022-12-27T20:19:18.425Z,10.07
2022-12-27T20:21:46.822Z,9.43
2022-12-27T20:24:14.723Z,9.93
2022-12-27T20:26:42.840Z,9.30
2022-12-27T20:29:12.746Z,9.55
2022-12-27T20:31:45.222Z,8.40
2022-12-27T20:34:12.939Z,7.80
2022-12-27T20:36:41.688Z,8.32
2022-12-27T20:39:09.628Z,8.00
2022-12-27T20:41:37.416Z,7.30
2022-12-27T20:44:05.603Z,8.60
2022-12-27T20:46:32.854Z,6.72
2022-12-27T20:49:02.037Z,6.40
2022-12-27T20:51:32.051Z,6.25
2022-12-27T20:54:02.402Z,6.07
2022-12-27T20:56:31.852Z,6.75
2022-12-27T20:58:59.529Z,5.70
2022-12-27T21:01:27.554Z,5.75
2022-12-27T21:03:56.726Z,5.78
2022-12-27T21:06:26.643Z,5.45
2022-12-27T21:08:57.383Z,8.27
2022-12-27T21:11:29.405Z,9.32
2022-12-27T21:13:58.306Z,6.68
2022-12-27T21:16:28.308Z,6.22
2022-12-27T21:18:56.321Z,6.63
2022-12-27T21:21:28.779Z,5.88
2022-12-27T21:23:58.849Z,5.80
2022-12-27T21:26:31.733Z,5.88
2022-12-27T21:29:01.931Z,5.78
2022-12-27T21:31:31.089Z,5.35
2022-12-27T21:34:01.742Z,6.53
2022-12-27T21:36:31.595Z,6.10
2022-12-27T21:38:59.353Z,5.20
2022-12-27T21:41:29.908Z,5.80
2022-12-27T21:43:57.534Z,5.95
2022-12-27T21:46:34.011Z,5.50
2022-12-27T21:49:04.851Z,4.72
2022-12-27T21:54:00.992Z,4.82
2022-12-27T21:56:30.897Z,5.85
2022-12-27T21:59:00.650Z,5.70
2022-12-27T22:01:50.306Z,4.97
2022-12-27T22:06:47.783Z,4.45
2022-12-27T22:09:17.051Z,4.40
2022-12-27T22:11:44.489Z,3.85
2022-12-27T22:14:11.839Z,4.20
2022-12-27T22:16:40.103Z,4.25
2022-12-27T22:19:09.484Z,4.10
2022-12-27T22:21:38.193Z,4.75
2022-12-27T22:24:06.542Z,4.05
2022-12-27T22:26:39.448Z,3.72
2022-12-27T22:29:08.111Z,8.60
2022-12-27T22:31:37.850Z,6.15
2022-12-27T22:34:06.381Z,3.67
2022-12-27T22:36:34.381Z,4.22
2022-12-27T22:39:02.815Z,3.95
2022-12-27T22:41:35.513Z,3.40
2022-12-27T22:44:06.244Z,3.88
2022-12-27T22:49:22.010Z,3.40
2022-12-27T22:51:49.300Z,3.22
2022-12-27T22:54:16.657Z,3.03
2022-12-27T22:56:44.532Z,2.90
2022-12-27T22:59:16.354Z,3.25
2022-12-27T23:01:46.378Z,3.45
2022-12-27T23:04:14.760Z,3.40
2022-12-27T23:06:42.524Z,3.65
2022-12-27T23:09:09.996Z,3.40
2022-12-27T23:11:41.153Z,3.53
2022-12-27T23:14:15.772Z,5.00
2022-12-27T23:16:49.060Z,3.85
2022-12-27T23:19:19.419Z,4.03
2022-12-27T23:21:47.909Z,3.65
2022-12-27T23:24:15.471Z,3.75
2022-12-27T23:26:44.175Z,3.58
2022-12-27T23:29:14.527Z,3.72
2022-12-27T23:31:55.298Z,4.00
2022-12-27T23:34:28.739Z,4.00
2022-12-27T23:36:58.331Z,3.67
2022-12-27T23:39:26.065Z,4.40
2022-12-27T23:41:53.432Z,3.92
2022-12-27T23:44:33.788Z,3.40
2022-12-27T23:47:05.748Z,3.70
2022-12-27T23:49:34.215Z,3.65
2022-12-27T23:52:01.950Z,3.75
2022-12-27T23:54:35.990Z,3.85
2022-12-27T23:57:20.194Z,4.03
2022-12-27T23:59:51.256Z,4.00
